Time;durP1;ratioP1;P1;durP2;ratioP2;P2;SDS_P1;SDS_P2;PMS_P1;PMS_P2;Temp;Humidity;BMP_temperature;BMP_pressure;BME280_temperature;BME280_humidity;BME280_pressure;Samples;Min_cycle;Max_cycle;Signal;HPM_P1;HPM_P2
2022/05/11 00:01:18;;;;;;;5.90;3.55;;;;;;;;;;6277278;22;20231;-60
2022/05/11 00:03:44;;;;;;;7.43;3.75;;;;;;;;;;6277133;22;20140;-59
2022/05/11 00:06:10;;;;;;;6.50;3.58;;;;;;;;;;6277827;22;20143;-59
2022/05/11 00:08:36;;;;;;;6.10;3.50;;;;;;;;;;6278945;22;20500;-59
2022/05/11 00:11:02;;;;;;;4.10;3.25;;;;;;;;;;6279465;22;20558;-59
2022/05/11 00:13:28;;;;;;;4.63;3.50;;;;;;;;;;6279804;22;20143;-59
2022/05/11 00:15:55;;;;;;;4.38;3.10;;;;;;;;;;6279339;22;20167;-59
2022/05/11 00:18:21;;;;;;;5.93;3.60;;;;;;;;;;6279170;22;20229;-59
2022/05/11 00:20:47;;;;;;;6.55;4.15;;;;;;;;;;6279231;22;20147;-58
2022/05/11 00:23:13;;;;;;;4.90;3.65;;;;;;;;;;6279097;22;20543;-59
2022/05/11 00:25:39;;;;;;;6.15;3.50;;;;;;;;;;6278436;22;20442;-58
2022/05/11 00:28:05;;;;;;;5.68;3.63;;;;;;;;;;6279058;22;20135;-60
2022/05/11 00:30:31;;;;;;;4.88;3.40;;;;;;;;;;6278633;22;20147;-59
2022/05/11 00:32:58;;;;;;;7.85;4.00;;;;;;;;;;6279074;22;20140;-58
2022/05/11 00:35:25;;;;;;;5.63;3.75;;;;;;;;;;6278798;22;20151;-60
2022/05/11 00:37:51;;;;;;;5.65;3.67;;;;;;;;;;6279226;22;20221;-59
2022/05/11 00:40:17;;;;;;;5.68;3.47;;;;;;;;;;6279157;22;20148;-59
2022/05/11 00:42:43;;;;;;;5.70;4.43;;;;;;;;;;6278737;22;20147;-60
2022/05/11 00:45:09;;;;;;;5.28;4.30;;;;;;;;;;6278418;22;20144;-60
2022/05/11 00:47:40;;;;;;;6.07;4.28;;;;;;;;;;6278645;22;20143;-59
2022/05/11 00:50:12;;;;;;;5.88;3.65;;;;;;;;;;6279050;22;20148;-59
2022/05/11 00:52:43;;;;;;;5.15;3.53;;;;;;;;;;6279693;22;20143;-59
2022/05/11 00:55:11;;;;;;;5.00;3.45;;;;;;;;;;6278520;22;20159;-59
2022/05/11 00:57:39;;;;;;;4.95;3.75;;;;;;;;;;6278140;22;20597;-58
2022/05/11 01:00:10;;;;;;;6.82;4.03;;;;;;;;;;6278365;22;20197;-59
2022/05/11 01:02:37;;;;;;;6.43;4.07;;;;;;;;;;6278419;22;20140;-60
2022/05/11 01:05:04;;;;;;;5.32;4.30;;;;;;;;;;6278162;22;20140;-59
2022/05/11 01:07:30;;;;;;;7.68;4.10;;;;;;;;;;6278701;22;20288;-59
2022/05/11 01:09:56;;;;;;;6.25;3.90;;;;;;;;;;6278996;22;20167;-59
2022/05/11 01:12:26;;;;;;;6.45;4.00;;;;;;;;;;6277863;22;20150;-59
2022/05/11 01:14:54;;;;;;;6.80;4.50;;;;;;;;;;6278185;22;20144;-59
2022/05/11 01:17:20;;;;;;;7.38;4.25;;;;;;;;;;6277901;22;20349;-59
2022/05/11 01:19:47;;;;;;;6.50;3.88;;;;;;;;;;6278033;22;20436;-59
2022/05/11 01:22:16;;;;;;;5.40;3.92;;;;;;;;;;6278147;22;20144;-59
2022/05/11 01:24:46;;;;;;;8.65;4.50;;;;;;;;;;6277992;22;20566;-58
2022/05/11 01:27:27;;;;;;;7.43;4.43;;;;;;;;;;6278298;22;20144;-58
2022/05/11 01:29:54;;;;;;;4.88;3.88;;;;;;;;;;6278643;22;20155;-59
2022/05/11 01:32:21;;;;;;;5.85;3.90;;;;;;;;;;6278175;22;20143;-58
2022/05/11 01:34:49;;;;;;;6.75;4.20;;;;;;;;;;6277958;22;20442;-58
2022/05/11 01:37:15;;;;;;;6.10;3.97;;;;;;;;;;6277790;22;20210;-58
2022/05/11 01:39:43;;;;;;;5.75;4.20;;;;;;;;;;6278275;22;20552;-58
2022/05/11 01:42:09;;;;;;;6.07;4.65;;;;;;;;;;6278123;22;20144;-57
2022/05/11 01:44:36;;;;;;;6.57;4.10;;;;;;;;;;6278049;22;20146;-58
2022/05/11 01:47:02;;;;;;;6.40;4.05;;;;;;;;;;6277975;22;20157;-58
2022/05/11 01:49:28;;;;;;;5.15;4.22;;;;;;;;;;6278629;22;20143;-58
2022/05/11 01:51:54;;;;;;;6.82;4.55;;;;;;;;;;6278012;22;20279;-59
2022/05/11 01:54:21;;;;;;;8.77;4.60;;;;;;;;;;6278491;22;20239;-58
2022/05/11 01:56:46;;;;;;;8.35;4.90;;;;;;;;;;6277696;22;20658;-58
2022/05/11 01:59:12;;;;;;;6.60;4.70;;;;;;;;;;6277827;22;20136;-58
2022/05/11 02:01:41;;;;;;;7.30;4.78;;;;;;;;;;6277938;22;20146;-60
2022/05/11 02:07:49;;;;;;;6.93;4.68;;;;;;;;;;6278171;22;20158;-58
2022/05/11 02:09:43;;;;;;;6.22;5.00;;;;;;;;;;6278122;22;20197;-58
2022/05/11 02:12:10;;;;;;;6.13;4.78;;;;;;;;;;6277902;22;20139;-59
2022/05/11 02:14:36;;;;;;;9.65;4.95;;;;;;;;;;6278423;22;20183;-58
2022/05/11 02:17:02;;;;;;;8.60;5.10;;;;;;;;;;6279140;22;20167;-58
2022/05/11 02:19:29;;;;;;;9.05;5.40;;;;;;;;;;6281384;22;20136;-59
2022/05/11 02:21:55;;;;;;;7.32;5.10;;;;;;;;;;6277792;22;20140;-59
2022/05/11 02:24:20;;;;;;;7.18;5.25;;;;;;;;;;6277606;22;20150;-59
2022/05/11 02:26:46;;;;;;;7.00;5.18;;;;;;;;;;6277734;22;20423;-59
2022/05/11 02:29:13;;;;;;;10.50;6.15;;;;;;;;;;6277298;22;20569;-59
2022/05/11 02:31:39;;;;;;;7.07;5.38;;;;;;;;;;6277501;22;20234;-58
2022/05/11 02:34:06;;;;;;;7.38;5.35;;;;;;;;;;6277173;22;20167;-58
2022/05/11 02:36:32;;;;;;;9.10;5.50;;;;;;;;;;6277562;22;20178;-59
2022/05/11 02:38:58;;;;;;;7.35;5.32;;;;;;;;;;6277219;22;20150;-58
2022/05/11 02:41:24;;;;;;;6.72;5.22;;;;;;;;;;6277680;22;20140;-58
2022/05/11 02:43:50;;;;;;;8.50;5.32;;;;;;;;;;6277358;22;20140;-59
2022/05/11 02:46:16;;;;;;;8.10;4.97;;;;;;;;;;6277349;22;20154;-59
2022/05/11 02:48:42;;;;;;;7.78;5.15;;;;;;;;;;6277108;22;20456;-59
2022/05/11 02:51:09;;;;;;;8.07;5.03;;;;;;;;;;6277063;22;20151;-59
2022/05/11 02:53:35;;;;;;;7.22;5.35;;;;;;;;;;6276988;22;20574;-59
2022/05/11 02:56:01;;;;;;;7.00;5.38;;;;;;;;;;6276809;22;20171;-59
2022/05/11 02:58:29;;;;;;;7.75;5.57;;;;;;;;;;6277316;22;20539;-59
2022/05/11 03:00:57;;;;;;;8.60;5.57;;;;;;;;;;6277460;22;20143;-59
2022/05/11 03:03:23;;;;;;;9.70;5.78;;;;;;;;;;6276887;22;20410;-59
2022/05/11 03:05:52;;;;;;;7.38;5.82;;;;;;;;;;6277410;22;20146;-59
2022/05/11 03:08:18;;;;;;;8.30;5.60;;;;;;;;;;6277452;22;20140;-59
2022/05/11 03:10:44;;;;;;;8.00;5.43;;;;;;;;;;6277454;22;20222;-59
2022/05/11 03:13:10;;;;;;;9.52;5.93;;;;;;;;;;6277022;22;20143;-59
2022/05/11 03:15:36;;;;;;;7.85;5.10;;;;;;;;;;6277032;22;20136;-59
2022/05/11 03:18:03;;;;;;;9.85;5.72;;;;;;;;;;6276883;22;20181;-59
2022/05/11 03:20:29;;;;;;;6.47;5.20;;;;;;;;;;6276923;22;20139;-59
2022/05/11 03:22:55;;;;;;;6.50;4.75;;;;;;;;;;6276978;22;20151;-58
2022/05/11 03:25:21;;;;;;;6.05;5.45;;;;;;;;;;6277311;22;20597;-58
2022/05/11 03:27:47;;;;;;;8.52;5.50;;;;;;;;;;6276941;22;20230;-58
2022/05/11 03:30:13;;;;;;;6.63;5.20;;;;;;;;;;6277019;22;20441;-58
2022/05/11 03:35:24;;;;;;;6.15;5.05;;;;;;;;;;6277034;22;20275;-58
2022/05/11 03:37:50;;;;;;;7.93;5.45;;;;;;;;;;6276755;22;20207;-58
2022/05/11 03:40:16;;;;;;;9.45;5.55;;;;;;;;;;6276859;22;20140;-60
2022/05/11 03:42:42;;;;;;;9.50;5.43;;;;;;;;;;6278136;22;20217;-60
2022/05/11 03:45:13;;;;;;;9.90;5.57;;;;;;;;;;6278797;22;20226;-60
2022/05/11 03:47:39;;;;;;;6.13;5.07;;;;;;;;;;6278745;22;20145;-60
2022/05/11 03:50:06;;;;;;;8.93;5.80;;;;;;;;;;6278902;22;20186;-60
2022/05/11 03:52:32;;;;;;;8.38;4.78;;;;;;;;;;6279234;22;20158;-58
2022/05/11 03:54:58;;;;;;;9.52;5.78;;;;;;;;;;6278782;22;20559;-59
2022/05/11 03:57:24;;;;;;;6.13;5.15;;;;;;;;;;6279101;22;20155;-59
2022/05/11 03:59:50;;;;;;;6.70;5.05;;;;;;;;;;6278634;22;20437;-59
2022/05/11 04:02:16;;;;;;;6.53;5.10;;;;;;;;;;6278917;22;20143;-59
2022/05/11 04:04:42;;;;;;;6.13;5.20;;;;;;;;;;6278523;22;20425;-59
2022/05/11 04:07:08;;;;;;;7.22;5.53;;;;;;;;;;6278518;22;20179;-59
2022/05/11 04:09:33;;;;;;;8.20;5.10;;;;;;;;;;6278918;22;20175;-58
2022/05/11 04:11:59;;;;;;;6.80;5.03;;;;;;;;;;6278555;22;20219;-58
2022/05/11 04:14:25;;;;;;;5.97;5.00;;;;;;;;;;6278525;22;20555;-59
2022/05/11 04:16:56;;;;;;;7.00;4.57;;;;;;;;;;6278759;22;20191;-56
2022/05/11 04:19:22;;;;;;;5.22;4.60;;;;;;;;;;6278952;22;20163;-56
2022/05/11 04:21:48;;;;;;;5.85;4.90;;;;;;;;;;6278452;22;20166;-59
2022/05/11 04:24:13;;;;;;;8.77;4.28;;;;;;;;;;6278506;22;20146;-58
2022/05/11 04:26:39;;;;;;;5.25;3.92;;;;;;;;;;6278511;22;20148;-58
2022/05/11 04:29:05;;;;;;;6.85;4.88;;;;;;;;;;6278687;22;20144;-59
2022/05/11 04:31:31;;;;;;;6.35;4.32;;;;;;;;;;6278448;22;20140;-58
2022/05/11 04:33:57;;;;;;;8.30;4.82;;;;;;;;;;6278309;22;20148;-59
2022/05/11 04:36:23;;;;;;;5.85;4.10;;;;;;;;;;6278499;22;20195;-58
2022/05/11 04:38:49;;;;;;;10.90;4.68;;;;;;;;;;6278517;22;20289;-58
2022/05/11 04:41:15;;;;;;;5.00;4.13;;;;;;;;;;6278458;22;20559;-58
2022/05/11 04:43:41;;;;;;;6.07;3.95;;;;;;;;;;6278691;22;20171;-60
2022/05/11 04:46:07;;;;;;;5.60;4.30;;;;;;;;;;6278367;22;20139;-60
2022/05/11 04:48:33;;;;;;;4.43;4.00;;;;;;;;;;6278298;22;20208;-60
2022/05/11 04:51:00;;;;;;;7.72;4.53;;;;;;;;;;6278802;22;20555;-60
2022/05/11 04:53:26;;;;;;;4.45;3.80;;;;;;;;;;6277640;22;20495;-60
2022/05/11 04:55:52;;;;;;;5.60;4.22;;;;;;;;;;6278405;22;20174;-60
2022/05/11 04:58:18;;;;;;;5.25;3.90;;;;;;;;;;6278287;22;20140;-60
2022/05/11 05:00:44;;;;;;;6.28;4.00;;;;;;;;;;6278335;22;20139;-60
2022/05/11 05:03:11;;;;;;;6.13;4.40;;;;;;;;;;6278532;22;20482;-59
2022/05/11 05:05:37;;;;;;;5.50;4.30;;;;;;;;;;6278447;22;20159;-60
2022/05/11 05:08:03;;;;;;;6.03;4.53;;;;;;;;;;6278221;22;20140;-60
2022/05/11 05:10:29;;;;;;;6.43;4.40;;;;;;;;;;6278096;22;20201;-59
2022/05/11 05:12:55;;;;;;;4.72;3.83;;;;;;;;;;6278788;22;20435;-59
2022/05/11 05:15:21;;;;;;;5.63;4.03;;;;;;;;;;6279040;22;20139;-59
2022/05/11 05:17:51;;;;;;;7.35;4.38;;;;;;;;;;6278929;22;20264;-59
2022/05/11 05:20:16;;;;;;;4.72;4.22;;;;;;;;;;6282513;22;20163;-59
2022/05/11 05:22:42;;;;;;;4.97;4.10;;;;;;;;;;6279297;22;20185;-60
2022/05/11 05:25:08;;;;;;;6.03;4.30;;;;;;;;;;6277935;22;20143;-59
2022/05/11 05:27:34;;;;;;;6.35;4.00;;;;;;;;;;6278577;22;20148;-60
2022/05/11 05:32:46;;;;;;;6.10;3.95;;;;;;;;;;6278103;22;20143;-60
2022/05/11 05:35:13;;;;;;;4.43;3.83;;;;;;;;;;6278334;22;20219;-59
2022/05/11 05:37:39;;;;;;;4.80;4.20;;;;;;;;;;6277797;22;20575;-59
2022/05/11 05:40:06;;;;;;;5.85;4.28;;;;;;;;;;6277544;22;20136;-59
2022/05/11 05:42:32;;;;;;;7.38;4.65;;;;;;;;;;6277887;22;20269;-59
2022/05/11 05:44:58;;;;;;;6.03;4.25;;;;;;;;;;6277589;22;20174;-60
2022/05/11 05:47:24;;;;;;;6.68;4.38;;;;;;;;;;6277488;22;20436;-60
2022/05/11 05:49:50;;;;;;;7.63;4.20;;;;;;;;;;6277568;22;20148;-59
2022/05/11 05:52:20;;;;;;;6.22;4.57;;;;;;;;;;6277591;22;20139;-60
2022/05/11 05:54:47;;;;;;;6.43;4.18;;;;;;;;;;6277362;22;20154;-59
2022/05/11 05:57:16;;;;;;;4.93;3.83;;;;;;;;;;6277410;22;20175;-60
2022/05/11 05:59:42;;;;;;;5.97;3.83;;;;;;;;;;6277850;22;20144;-60
2022/05/11 06:02:14;;;;;;;4.95;3.67;;;;;;;;;;6277691;22;20163;-59
2022/05/11 06:04:43;;;;;;;6.10;3.63;;;;;;;;;;6277543;22;20159;-59
2022/05/11 06:07:11;;;;;;;6.60;4.15;;;;;;;;;;6277938;22;20182;-60
2022/05/11 06:09:38;;;;;;;5.80;4.10;;;;;;;;;;6277467;22;20491;-60
2022/05/11 06:12:04;;;;;;;5.35;4.03;;;;;;;;;;6277722;22;20246;-60
2022/05/11 06:14:30;;;;;;;4.93;3.65;;;;;;;;;;6277348;22;20147;-60
2022/05/11 06:16:56;;;;;;;4.78;4.28;;;;;;;;;;6277351;22;20191;-60
2022/05/11 06:19:22;;;;;;;5.03;4.20;;;;;;;;;;6277582;22;20206;-60
2022/05/11 06:21:48;;;;;;;7.93;4.15;;;;;;;;;;6277326;22;20215;-60
2022/05/11 06:24:14;;;;;;;5.95;4.43;;;;;;;;;;6277693;22;20170;-59
2022/05/11 06:26:41;;;;;;;5.35;4.00;;;;;;;;;;6277162;22;20146;-60
2022/05/11 06:29:08;;;;;;;5.72;4.07;;;;;;;;;;6277499;22;20466;-60
2022/05/11 06:31:34;;;;;;;4.72;3.95;;;;;;;;;;6277511;22;20142;-60
2022/05/11 06:34:00;;;;;;;6.15;4.50;;;;;;;;;;6277209;22;20570;-60
2022/05/11 06:36:26;;;;;;;6.38;4.20;;;;;;;;;;6277000;22;20640;-60
2022/05/11 06:38:52;;;;;;;5.47;4.30;;;;;;;;;;6277268;22;20218;-60
2022/05/11 06:41:20;;;;;;;5.00;4.30;;;;;;;;;;6277096;22;20135;-60
2022/05/11 06:43:46;;;;;;;4.72;4.20;;;;;;;;;;6277108;22;20159;-60
2022/05/11 06:46:13;;;;;;;4.90;4.40;;;;;;;;;;6277160;22;20419;-59
2022/05/11 06:48:38;;;;;;;5.80;4.45;;;;;;;;;;6277655;22;20151;-59
2022/05/11 06:51:04;;;;;;;5.75;4.50;;;;;;;;;;6277083;22;20506;-59
2022/05/11 06:59:18;;;;;;;5.88;4.57;;;;;;;;;;6277291;22;20146;-60
2022/05/11 07:01:45;;;;;;;4.88;4.47;;;;;;;;;;6277291;22;20621;-61
2022/05/11 07:04:11;;;;;;;5.32;4.82;;;;;;;;;;6277158;22;20135;-61
2022/05/11 07:06:37;;;;;;;8.57;4.30;;;;;;;;;;6276934;22;20171;-60
2022/05/11 07:09:03;;;;;;;6.25;4.70;;;;;;;;;;6277095;22;20290;-60
2022/05/11 07:14:14;;;;;;;6.88;5.07;;;;;;;;;;6277197;22;20195;-61
2022/05/11 07:16:39;;;;;;;6.03;4.97;;;;;;;;;;6277920;22;20170;-61
2022/05/11 07:19:06;;;;;;;6.05;5.00;;;;;;;;;;6279227;22;20146;-60
2022/05/11 07:21:33;;;;;;;7.45;4.90;;;;;;;;;;6279389;22;20139;-61
2022/05/11 07:23:58;;;;;;;6.43;5.30;;;;;;;;;;6279018;22;20555;-60
2022/05/11 07:26:24;;;;;;;5.35;4.82;;;;;;;;;;6278863;22;20139;-61
2022/05/11 07:28:50;;;;;;;6.90;5.15;;;;;;;;;;6278854;22;20143;-63
2022/05/11 07:31:16;;;;;;;5.70;4.60;;;;;;;;;;6279026;22;20169;-62
2022/05/11 07:33:44;;;;;;;5.25;4.75;;;;;;;;;;6279099;22;20535;-62
2022/05/11 07:36:10;;;;;;;6.65;4.88;;;;;;;;;;6279140;22;20216;-63
2022/05/11 07:38:39;;;;;;;6.35;4.93;;;;;;;;;;6278997;22;20142;-63
2022/05/11 07:41:05;;;;;;;5.55;4.97;;;;;;;;;;6279726;22;20162;-63
2022/05/11 07:43:31;;;;;;;5.53;4.90;;;;;;;;;;6278843;22;20245;-62
2022/05/11 07:45:57;;;;;;;6.10;5.00;;;;;;;;;;6278676;22;20136;-63
2022/05/11 07:48:23;;;;;;;5.10;4.65;;;;;;;;;;6278924;22;20207;-62
2022/05/11 07:50:49;;;;;;;5.20;4.70;;;;;;;;;;6278962;22;20222;-63
2022/05/11 07:53:15;;;;;;;5.28;4.78;;;;;;;;;;6279635;22;20462;-62
2022/05/11 07:55:41;;;;;;;8.23;5.75;;;;;;;;;;6279240;22;20161;-63
2022/05/11 08:00:54;;;;;;;7.20;5.05;;;;;;;;;;6279343;22;20142;-63
2022/05/11 08:03:20;;;;;;;7.45;5.35;;;;;;;;;;6279655;22;20430;-63
2022/05/11 08:05:46;;;;;;;7.65;6.00;;;;;;;;;;6279750;22;20140;-62
2022/05/11 08:08:12;;;;;;;6.70;5.97;;;;;;;;;;6279489;22;20554;-63
2022/05/11 08:10:42;;;;;;;7.57;5.95;;;;;;;;;;6279029;22;20477;-63
2022/05/11 08:13:09;;;;;;;7.93;6.82;;;;;;;;;;6279381;22;20564;-62
2022/05/11 08:15:37;;;;;;;6.82;6.20;;;;;;;;;;6279125;22;20437;-62
2022/05/11 08:18:04;;;;;;;8.75;7.13;;;;;;;;;;6278790;22;20247;-62
2022/05/11 08:20:32;;;;;;;7.85;6.70;;;;;;;;;;6279540;22;20147;-63
2022/05/11 08:22:59;;;;;;;8.65;6.35;;;;;;;;;;6279303;22;20440;-63
2022/05/11 08:25:27;;;;;;;8.52;6.60;;;;;;;;;;6278950;22;20151;-63
2022/05/11 08:27:54;;;;;;;7.15;6.43;;;;;;;;;;6278579;22;20203;-62
2022/05/11 08:33:19;;;;;;;7.82;6.97;;;;;;;;;;6278432;22;20192;-64
2022/05/11 08:35:45;;;;;;;9.38;7.35;;;;;;;;;;6278347;22;20527;-62
2022/05/11 08:38:11;;;;;;;8.50;7.45;;;;;;;;;;6278389;22;20270;-63
2022/05/11 08:40:37;;;;;;;8.73;7.28;;;;;;;;;;6278225;22;20416;-63
2022/05/11 08:43:05;;;;;;;8.40;7.53;;;;;;;;;;6278077;22;20147;-62
2022/05/11 08:45:37;;;;;;;7.65;6.88;;;;;;;;;;6278506;22;20410;-63
2022/05/11 08:48:05;;;;;;;7.88;7.05;;;;;;;;;;6278268;22;20174;-63
2022/05/11 08:50:31;;;;;;;8.55;6.85;;;;;;;;;;6278053;22;20551;-63
2022/05/11 08:53:04;;;;;;;9.27;7.88;;;;;;;;;;6278109;22;20150;-63
2022/05/11 08:55:37;;;;;;;9.32;7.93;;;;;;;;;;6278184;22;20155;-63
2022/05/11 08:58:11;;;;;;;8.57;7.78;;;;;;;;;;6278172;22;20154;-63
2022/05/11 09:00:41;;;;;;;8.25;7.45;;;;;;;;;;6278391;22;20150;-63
2022/05/11 09:03:12;;;;;;;8.68;7.78;;;;;;;;;;6278298;22;20150;-63
2022/05/11 09:05:39;;;;;;;9.65;8.32;;;;;;;;;;6278126;22;20132;-63
2022/05/11 09:08:06;;;;;;;11.75;8.65;;;;;;;;;;6277900;22;20139;-62
2022/05/11 09:10:36;;;;;;;10.90;8.95;;;;;;;;;;6278420;22;20147;-62
2022/05/11 09:13:04;;;;;;;8.55;7.75;;;;;;;;;;6277981;22;20143;-63
2022/05/11 09:15:47;;;;;;;11.13;8.90;;;;;;;;;;6278233;22;20174;-63
2022/05/11 09:18:13;;;;;;;9.48;7.78;;;;;;;;;;6278069;22;20253;-65
2022/05/11 09:20:44;;;;;;;9.23;8.30;;;;;;;;;;6277606;22;20555;-62
2022/05/11 09:23:10;;;;;;;9.45;8.43;;;;;;;;;;6278010;22;20142;-63
2022/05/11 09:25:37;;;;;;;8.68;7.88;;;;;;;;;;6278030;22;20139;-62
2022/05/11 09:28:15;;;;;;;10.02;7.65;;;;;;;;;;6277648;22;20143;-62
2022/05/11 09:30:55;;;;;;;10.40;7.82;;;;;;;;;;6278081;22;20174;-63
2022/05/11 09:33:25;;;;;;;9.02;8.02;;;;;;;;;;6278061;22;20438;-62
2022/05/11 09:35:51;;;;;;;9.52;8.30;;;;;;;;;;6277620;22;20565;-62
2022/05/11 09:38:17;;;;;;;8.88;8.00;;;;;;;;;;6277671;22;20300;-61
2022/05/11 09:40:50;;;;;;;12.02;7.93;;;;;;;;;;6277808;22;20288;-62
2022/05/11 09:43:29;;;;;;;8.75;7.68;;;;;;;;;;6277566;22;20123;-62
2022/05/11 09:45:54;;;;;;;9.10;8.20;;;;;;;;;;6277596;22;20619;-63
2022/05/11 09:48:25;;;;;;;8.73;7.75;;;;;;;;;;6277627;22;20166;-63
2022/05/11 09:50:56;;;;;;;9.38;7.65;;;;;;;;;;6277670;22;20135;-62
2022/05/11 09:53:38;;;;;;;8.48;7.45;;;;;;;;;;6277475;22;20124;-63
2022/05/11 09:56:33;;;;;;;8.70;7.80;;;;;;;;;;6277181;22;20154;-63
2022/05/11 09:59:25;;;;;;;9.25;7.15;;;;;;;;;;6252036;22;20529;-63
2022/05/11 10:02:05;;;;;;;8.38;7.00;;;;;;;;;;6271907;22;20239;-62
2022/05/11 10:04:34;;;;;;;8.15;7.28;;;;;;;;;;6277329;22;20128;-63
2022/05/11 10:07:00;;;;;;;9.45;7.43;;;;;;;;;;6277529;22;20161;-62
2022/05/11 10:09:32;;;;;;;9.00;6.82;;;;;;;;;;6277744;22;20144;-62
2022/05/11 10:11:59;;;;;;;8.95;6.85;;;;;;;;;;6277699;22;20146;-62
2022/05/11 10:22:51;;;;;;;8.15;6.50;;;;;;;;;;6277599;22;20192;-62
2022/05/11 10:25:19;;;;;;;7.28;5.93;;;;;;;;;;6277768;22;20127;-61
2022/05/11 10:27:47;;;;;;;8.73;6.60;;;;;;;;;;6277119;22;20519;-61
2022/05/11 10:30:28;;;;;;;6.90;6.20;;;;;;;;;;6277413;22;20173;-62
2022/05/11 10:33:09;;;;;;;7.25;6.28;;;;;;;;;;6277511;22;20420;-63
2022/05/11 10:35:45;;;;;;;7.95;5.90;;;;;;;;;;6277600;22;20153;-62
2022/05/11 10:38:31;;;;;;;6.88;6.07;;;;;;;;;;6277013;22;20182;-62
2022/05/11 10:41:19;;;;;;;10.80;5.90;;;;;;;;;;6277402;22;20135;-62
2022/05/11 10:44:00;;;;;;;8.38;6.25;;;;;;;;;;6276817;22;20153;-62
2022/05/11 10:46:32;;;;;;;6.82;5.55;;;;;;;;;;6276800;22;20142;-63
2022/05/11 10:49:19;;;;;;;8.68;6.63;;;;;;;;;;6276803;22;20131;-62
2022/05/11 10:52:08;;;;;;;9.55;5.60;;;;;;;;;;6276483;22;20131;-63
2022/05/11 10:54:52;;;;;;;8.27;5.78;;;;;;;;;;6276553;22;20189;-63
2022/05/11 10:57:40;;;;;;;6.53;5.50;;;;;;;;;;6276473;22;20201;-62
2022/05/11 11:00:08;;;;;;;8.00;5.60;;;;;;;;;;6276714;22;20124;-63
2022/05/11 11:02:34;;;;;;;6.88;5.90;;;;;;;;;;6276581;22;20330;-62
2022/05/11 11:05:11;;;;;;;6.85;5.32;;;;;;;;;;6276795;22;20170;-62
2022/05/11 11:07:44;;;;;;;6.50;5.32;;;;;;;;;;6276666;22;20143;-62
2022/05/11 11:10:26;;;;;;;7.30;5.47;;;;;;;;;;6277160;22;20147;-63
2022/05/11 11:12:58;;;;;;;6.97;5.45;;;;;;;;;;6276789;22;20157;-62
2022/05/11 11:15:26;;;;;;;8.40;6.18;;;;;;;;;;6276680;22;20204;-63
2022/05/11 11:17:54;;;;;;;7.18;5.63;;;;;;;;;;6276986;22;20173;-63
2022/05/11 11:20:20;;;;;;;6.95;5.40;;;;;;;;;;6277011;22;20561;-63
2022/05/11 11:23:02;;;;;;;6.20;5.60;;;;;;;;;;6276641;22;20531;-63
2022/05/11 11:25:43;;;;;;;7.97;5.07;;;;;;;;;;6276751;22;20140;-62
2022/05/11 11:28:11;;;;;;;5.57;4.55;;;;;;;;;;6276666;22;20208;-63
2022/05/11 11:30:38;;;;;;;9.10;4.93;;;;;;;;;;6276553;22;20143;-63
2022/05/11 11:33:13;;;;;;;5.70;4.85;;;;;;;;;;6276595;22;20509;-63
2022/05/11 11:35:58;;;;;;;5.07;4.57;;;;;;;;;;6276968;22;20150;-62
2022/05/11 11:38:44;;;;;;;6.75;4.78;;;;;;;;;;6276417;22;20220;-63
2022/05/11 11:41:24;;;;;;;6.97;4.65;;;;;;;;;;6276737;22;20135;-62
2022/05/11 11:43:50;;;;;;;6.70;4.97;;;;;;;;;;6276912;22;20442;-63
2022/05/11 11:46:34;;;;;;;5.50;4.55;;;;;;;;;;6276563;22;20145;-63
2022/05/11 11:49:03;;;;;;;6.72;4.75;;;;;;;;;;6276745;22;20173;-62
2022/05/11 11:51:33;;;;;;;5.97;4.72;;;;;;;;;;6277123;22;20150;-62
2022/05/11 11:53:59;;;;;;;6.65;4.68;;;;;;;;;;6276331;22;20185;-62
2022/05/11 11:56:25;;;;;;;4.93;4.22;;;;;;;;;;6276183;22;20194;-61
2022/05/11 11:59:04;;;;;;;7.13;4.55;;;;;;;;;;6276263;22;20135;-63
2022/05/11 12:01:32;;;;;;;4.93;4.40;;;;;;;;;;6276461;22;20149;-62
2022/05/11 12:03:59;;;;;;;5.40;3.85;;;;;;;;;;6278092;22;20214;-61
2022/05/11 12:15:02;;;;;;;5.00;4.22;;;;;;;;;;6278370;22;20158;-62
2022/05/11 12:17:36;;;;;;;5.00;4.05;;;;;;;;;;6278315;22;20459;-62
2022/05/11 12:20:06;;;;;;;4.40;3.88;;;;;;;;;;6278495;22;20163;-63
2022/05/11 12:22:32;;;;;;;4.10;3.33;;;;;;;;;;6278651;22;20169;-62
2022/05/11 12:25:01;;;;;;;6.85;3.35;;;;;;;;;;6278204;22;20246;-62
2022/05/11 12:27:31;;;;;;;4.55;3.50;;;;;;;;;;6278033;22;20139;-62
2022/05/11 12:29:59;;;;;;;5.25;3.63;;;;;;;;;;6278285;22;20538;-63
2022/05/11 12:32:25;;;;;;;5.15;3.78;;;;;;;;;;6278498;22;20180;-62
2022/05/11 12:34:51;;;;;;;4.00;3.22;;;;;;;;;;6278752;22;20431;-63
2022/05/11 12:37:34;;;;;;;5.05;4.30;;;;;;;;;;6278140;22;20230;-63
2022/05/11 12:40:08;;;;;;;5.78;4.32;;;;;;;;;;6277891;22;20143;-63
2022/05/11 12:42:39;;;;;;;5.05;4.55;;;;;;;;;;6278276;22;20139;-63
2022/05/11 12:45:05;;;;;;;6.68;3.80;;;;;;;;;;6277836;22;20204;-62
2022/05/11 12:47:32;;;;;;;4.05;3.58;;;;;;;;;;6278030;22;20144;-63
2022/05/11 12:49:58;;;;;;;4.20;3.50;;;;;;;;;;6277792;22;20162;-63
2022/05/11 12:52:27;;;;;;;3.63;3.33;;;;;;;;;;6278205;22;20179;-62
2022/05/11 12:55:01;;;;;;;4.80;3.67;;;;;;;;;;6277640;22;20139;-63
2022/05/11 12:57:35;;;;;;;4.18;3.75;;;;;;;;;;6277947;22;20170;-63
2022/05/11 13:00:02;;;;;;;5.30;4.47;;;;;;;;;;6277753;22;20598;-63
2022/05/11 13:02:37;;;;;;;4.82;4.30;;;;;;;;;;6278228;22;20143;-63
2022/05/11 13:05:07;;;;;;;4.85;3.88;;;;;;;;;;6277913;22;20127;-63
2022/05/11 13:07:35;;;;;;;7.03;4.18;;;;;;;;;;6277768;22;20139;-61
2022/05/11 13:10:02;;;;;;;7.28;4.45;;;;;;;;;;6277646;22;20174;-62
2022/05/11 13:12:29;;;;;;;4.03;3.63;;;;;;;;;;6277714;22;20551;-63
2022/05/11 13:14:57;;;;;;;5.25;4.38;;;;;;;;;;6276865;22;20407;-63
2022/05/11 13:17:26;;;;;;;4.57;3.95;;;;;;;;;;6277560;22;20170;-62
2022/05/11 13:19:53;;;;;;;5.05;4.35;;;;;;;;;;6277372;22;20162;-62
2022/05/11 13:22:22;;;;;;;5.43;4.10;;;;;;;;;;6277838;22;20163;-63
2022/05/11 13:24:55;;;;;;;5.18;4.60;;;;;;;;;;6277351;22;20439;-63
2022/05/11 13:27:33;;;;;;;7.95;4.65;;;;;;;;;;6277258;22;20423;-63
2022/05/11 13:30:20;;;;;;;6.60;4.70;;;;;;;;;;6277568;22;20142;-62
2022/05/11 13:32:49;;;;;;;5.72;4.95;;;;;;;;;;6277753;22;20359;-62
2022/05/11 13:35:15;;;;;;;5.30;4.72;;;;;;;;;;6277962;22;20147;-61
2022/05/11 13:37:41;;;;;;;5.85;5.00;;;;;;;;;;6278035;22;20431;-61
2022/05/11 13:40:07;;;;;;;7.13;5.38;;;;;;;;;;6277554;22;20142;-62
2022/05/11 13:42:33;;;;;;;6.65;4.82;;;;;;;;;;6277662;22;20253;-62
2022/05/11 13:45:04;;;;;;;5.15;4.65;;;;;;;;;;6277933;22;20432;-62
2022/05/11 13:50:35;;;;;;;5.18;4.63;;;;;;;;;;6278324;22;20143;-62
2022/05/11 13:53:04;;;;;;;5.50;5.00;;;;;;;;;;6278000;22;20200;-61
2022/05/11 13:55:32;;;;;;;5.63;5.10;;;;;;;;;;6277648;22;20411;-62
2022/05/11 13:58:18;;;;;;;6.22;5.00;;;;;;;;;;6277901;22;20165;-63
2022/05/11 14:00:44;;;;;;;6.55;4.85;;;;;;;;;;6277434;22;20143;-62
2022/05/11 14:03:14;;;;;;;4.88;4.47;;;;;;;;;;6277335;22;20139;-63
2022/05/11 14:05:39;;;;;;;5.60;4.60;;;;;;;;;;6277175;22;20212;-63
2022/05/11 14:08:05;;;;;;;5.93;3.88;;;;;;;;;;6277674;22;20225;-63
2022/05/11 14:10:31;;;;;;;5.55;3.88;;;;;;;;;;6277039;22;20557;-62
2022/05/11 14:12:57;;;;;;;5.63;4.40;;;;;;;;;;6277213;22;20226;-63
2022/05/11 14:15:23;;;;;;;5.35;4.57;;;;;;;;;;6277267;22;20424;-63
2022/05/11 14:17:51;;;;;;;5.72;4.43;;;;;;;;;;6277430;22;20167;-63
2022/05/11 14:20:20;;;;;;;4.78;4.30;;;;;;;;;;6276836;22;20135;-62
2022/05/11 14:22:46;;;;;;;6.20;4.50;;;;;;;;;;6277611;22;20450;-63
2022/05/11 14:25:14;;;;;;;5.18;4.03;;;;;;;;;;6277221;22;20210;-63
2022/05/11 14:27:40;;;;;;;4.95;4.10;;;;;;;;;;6277265;22;20566;-63
2022/05/11 14:30:07;;;;;;;5.72;4.00;;;;;;;;;;6277543;22;20171;-63
2022/05/11 14:32:36;;;;;;;5.40;4.70;;;;;;;;;;6277253;22;20577;-63
2022/05/11 14:35:03;;;;;;;5.03;4.47;;;;;;;;;;6277150;22;20638;-62
2022/05/11 14:37:29;;;;;;;6.53;4.38;;;;;;;;;;6277411;22;20220;-63
2022/05/11 14:39:56;;;;;;;6.03;4.43;;;;;;;;;;6277480;22;20428;-63
2022/05/11 14:42:22;;;;;;;6.53;4.22;;;;;;;;;;6277735;22;20150;-63
2022/05/11 14:44:48;;;;;;;6.18;4.65;;;;;;;;;;6277625;22;20140;-63
2022/05/11 14:47:14;;;;;;;5.15;4.30;;;;;;;;;;6276853;22;20173;-63
2022/05/11 14:49:41;;;;;;;6.20;4.28;;;;;;;;;;6277121;22;20179;-62
2022/05/11 14:52:08;;;;;;;6.38;4.25;;;;;;;;;;6277393;22;20162;-62
2022/05/11 14:54:34;;;;;;;7.55;4.95;;;;;;;;;;6277509;22;20489;-62
2022/05/11 15:02:31;;;;;;;5.10;4.47;;;;;;;;;;6277050;22;20209;-62
2022/05/11 15:04:57;;;;;;;6.40;4.57;;;;;;;;;;6277023;22;20236;-63
2022/05/11 15:07:23;;;;;;;4.18;3.80;;;;;;;;;;6277047;22;20139;-62
2022/05/11 15:09:48;;;;;;;5.38;4.03;;;;;;;;;;6277094;22;20139;-63
2022/05/11 15:14:59;;;;;;;6.32;4.88;;;;;;;;;;6276890;22;20137;-61
2022/05/11 15:17:27;;;;;;;4.82;4.25;;;;;;;;;;6276855;22;20250;-62
2022/05/11 15:19:53;;;;;;;5.45;3.95;;;;;;;;;;6277205;22;20462;-62
2022/05/11 15:22:19;;;;;;;5.72;4.40;;;;;;;;;;6277633;22;20139;-62
2022/05/11 15:24:45;;;;;;;6.53;4.55;;;;;;;;;;6277147;22;20139;-61
2022/05/11 15:27:12;;;;;;;5.60;4.20;;;;;;;;;;6277031;22;20217;-62
2022/05/11 15:29:38;;;;;;;6.10;5.10;;;;;;;;;;6277311;22;20233;-62
2022/05/11 15:32:06;;;;;;;6.22;4.93;;;;;;;;;;6277746;22;20622;-62
2022/05/11 15:34:32;;;;;;;4.75;4.15;;;;;;;;;;6277685;22;20154;-62
2022/05/11 15:36:59;;;;;;;6.65;4.00;;;;;;;;;;6276812;22;20582;-62
2022/05/11 15:39:26;;;;;;;5.03;3.78;;;;;;;;;;6279255;22;20571;-63
2022/05/11 15:41:51;;;;;;;6.25;3.90;;;;;;;;;;6279344;22;20178;-62